createdAt,value
2023-03-27T00:00:52.390Z,991.25
2023-03-27T00:01:51.721Z,991.24
2023-03-27T00:02:51.862Z,991.30
2023-03-27T00:03:51.850Z,991.33
2023-03-27T00:04:51.670Z,991.25
2023-03-27T00:05:51.696Z,991.32
2023-03-27T00:06:51.690Z,991.32
2023-03-27T00:07:51.668Z,991.40
2023-03-27T00:08:51.667Z,991.42
2023-03-27T00:09:51.645Z,991.42
2023-03-27T00:10:51.635Z,991.46
2023-03-27T00:11:51.667Z,991.51
2023-03-27T00:12:51.624Z,991.45
2023-03-27T00:13:51.634Z,991.55
2023-03-27T00:14:51.649Z,991.54
2023-03-27T00:15:51.612Z,991.56
2023-03-27T00:16:51.630Z,991.55
2023-03-27T00:17:51.624Z,991.65
2023-03-27T00:18:51.680Z,991.63
2023-03-27T00:19:51.573Z,991.70
2023-03-27T00:20:51.594Z,991.66
2023-03-27T00:21:51.580Z,991.74
2023-03-27T00:22:51.577Z,991.77
2023-03-27T00:23:51.600Z,991.79
2023-03-27T00:24:52.555Z,991.83
2023-03-27T00:25:51.528Z,991.79
2023-03-27T00:26:51.601Z,991.81
2023-03-27T00:27:51.524Z,991.79
2023-03-27T00:28:51.528Z,991.82
2023-03-27T00:29:51.521Z,991.83
2023-03-27T00:30:51.568Z,991.90
2023-03-27T00:31:51.542Z,991.90
2023-03-27T00:32:51.564Z,991.93
2023-03-27T00:33:51.493Z,991.92
2023-03-27T00:34:51.547Z,991.94
2023-03-27T00:35:51.566Z,991.89
2023-03-27T00:36:51.498Z,991.95
2023-03-27T00:37:51.553Z,991.97
2023-03-27T00:38:51.481Z,991.91
2023-03-27T00:39:51.592Z,991.99
2023-03-27T00:40:51.477Z,991.98
2023-03-27T00:41:51.437Z,991.98
2023-03-27T00:42:51.441Z,992.05
2023-03-27T00:43:51.426Z,992.02
2023-03-27T00:44:51.435Z,992.10
2023-03-27T00:45:51.501Z,992.12
2023-03-27T00:46:51.420Z,992.11
2023-03-27T00:47:51.478Z,992.17
2023-03-27T00:48:51.465Z,992.17
2023-03-27T00:49:51.432Z,992.13
2023-03-27T00:50:51.383Z,992.15
2023-03-27T00:51:51.388Z,992.15
2023-03-27T00:52:51.376Z,992.19
2023-03-27T00:53:51.368Z,992.15
2023-03-27T00:54:51.430Z,992.25
2023-03-27T00:55:51.401Z,992.20
2023-03-27T00:56:51.368Z,992.25
2023-03-27T00:57:51.336Z,992.22
2023-03-27T00:58:51.386Z,992.26
2023-03-27T00:59:51.368Z,992.36
2023-03-27T01:00:51.326Z,992.37
2023-03-27T01:01:51.389Z,992.34
2023-03-27T01:02:51.390Z,992.35
2023-03-27T01:03:51.469Z,992.41
2023-03-27T01:04:51.321Z,992.38
2023-03-27T01:05:51.318Z,992.42
2023-03-27T01:06:51.290Z,992.38
2023-03-27T01:08:00.079Z,992.48
2023-03-27T01:08:52.320Z,992.41
2023-03-27T01:09:51.272Z,992.42
2023-03-27T01:10:51.280Z,992.54
2023-03-27T01:11:51.264Z,992.44
2023-03-27T01:12:51.229Z,992.50
2023-03-27T01:13:51.256Z,992.45
2023-03-27T01:14:51.272Z,992.47
2023-03-27T01:15:51.284Z,992.44
2023-03-27T01:16:51.229Z,992.55
2023-03-27T01:17:51.234Z,992.49
2023-03-27T01:18:51.231Z,992.54
2023-03-27T01:19:51.183Z,992.55
2023-03-27T01:20:51.906Z,992.53
2023-03-27T01:21:51.185Z,992.57
2023-03-27T01:22:51.180Z,992.57
2023-03-27T01:24:00.253Z,992.51
2023-03-27T01:24:52.199Z,992.60
2023-03-27T01:25:51.154Z,992.51
2023-03-27T01:26:51.179Z,992.61
2023-03-27T01:27:51.166Z,992.67
2023-03-27T01:28:51.177Z,992.66
2023-03-27T01:29:51.133Z,992.60
2023-03-27T01:30:51.122Z,992.66
2023-03-27T01:31:51.218Z,992.70
2023-03-27T01:32:51.221Z,992.72
2023-03-27T01:33:51.125Z,992.76
2023-03-27T01:35:01.792Z,992.72
2023-03-27T01:35:52.158Z,992.77
2023-03-27T01:36:51.100Z,992.82
2023-03-27T01:37:51.088Z,992.80
2023-03-27T01:38:51.092Z,992.76
2023-03-27T01:39:51.050Z,992.78
2023-03-27T01:40:51.065Z,992.80
2023-03-27T01:41:51.079Z,992.84
2023-03-27T01:42:51.048Z,992.83
2023-03-27T01:43:51.085Z,992.90
2023-03-27T01:44:51.112Z,992.89
2023-03-27T01:45:51.104Z,992.86
2023-03-27T01:46:51.093Z,993.03
2023-03-27T01:47:51.072Z,993.02
2023-03-27T01:48:51.070Z,993.02
2023-03-27T01:49:51.002Z,993.07
2023-03-27T01:50:51.006Z,993.07
2023-03-27T01:51:51.010Z,993.04
2023-03-27T01:52:50.980Z,993.04
2023-03-27T01:53:50.957Z,993.13
2023-03-27T01:54:50.955Z,993.11
2023-03-27T01:55:51.000Z,993.08
2023-03-27T01:56:51.015Z,993.13
2023-03-27T01:57:50.957Z,993.13
2023-03-27T01:58:51.034Z,993.19
2023-03-27T01:59:50.938Z,993.23
2023-03-27T02:00:53.051Z,993.18
2023-03-27T02:01:50.953Z,993.15
2023-03-27T02:02:50.906Z,993.17
2023-03-27T02:03:50.921Z,993.21
2023-03-27T02:04:50.962Z,993.18
2023-03-27T02:05:50.914Z,993.20
2023-03-27T02:06:50.969Z,993.18
2023-03-27T02:07:50.916Z,993.22
2023-03-27T02:08:50.874Z,993.25
2023-03-27T02:09:50.871Z,993.23
2023-03-27T02:10:50.879Z,993.26
2023-03-27T02:11:50.879Z,993.22
2023-03-27T02:12:50.887Z,993.24
2023-03-27T02:13:51.814Z,993.28
2023-03-27T02:14:50.850Z,993.29
2023-03-27T02:15:50.914Z,993.30
2023-03-27T02:16:50.813Z,993.27
2023-03-27T02:17:50.922Z,993.37
2023-03-27T02:18:50.883Z,993.36
2023-03-27T02:19:50.865Z,993.41
2023-03-27T02:20:50.813Z,993.43
2023-03-27T02:21:50.790Z,993.40
2023-03-27T02:22:50.810Z,993.52
2023-03-27T02:23:50.810Z,993.54
2023-03-27T02:24:50.765Z,993.58
2023-03-27T02:25:50.826Z,993.61
2023-03-27T02:26:50.823Z,993.64
2023-03-27T02:27:50.764Z,993.63
2023-03-27T02:28:50.805Z,993.63
2023-03-27T02:29:50.749Z,993.63
2023-03-27T02:31:06.997Z,993.67
2023-03-27T02:31:51.781Z,993.70
2023-03-27T02:32:50.751Z,993.76
2023-03-27T02:33:50.742Z,993.73
2023-03-27T02:34:50.717Z,993.81
2023-03-27T02:35:50.795Z,993.84
2023-03-27T02:36:50.710Z,993.80
2023-03-27T02:37:50.718Z,993.89
2023-03-27T02:38:50.716Z,993.95
2023-03-27T02:39:50.718Z,993.92
2023-03-27T02:40:50.689Z,993.87
2023-03-27T02:41:50.694Z,993.95
2023-03-27T02:42:50.667Z,994.00
2023-03-27T02:43:50.696Z,993.93
2023-03-27T02:44:50.662Z,993.96
2023-03-27T02:45:50.725Z,993.96
2023-03-27T02:46:50.664Z,993.98
2023-03-27T02:47:50.695Z,994.06
2023-03-27T02:48:50.619Z,994.07
2023-03-27T02:49:50.615Z,994.12
2023-03-27T02:50:50.623Z,994.14
2023-03-27T02:51:50.657Z,994.18
2023-03-27T02:52:50.619Z,994.22
2023-03-27T02:53:50.609Z,994.24
2023-03-27T02:54:50.617Z,994.22
2023-03-27T02:55:50.605Z,994.28
2023-03-27T02:56:50.582Z,994.25
2023-03-27T02:57:52.063Z,994.29
2023-03-27T02:58:50.669Z,994.33
2023-03-27T02:59:50.577Z,994.31
2023-03-27T03:00:51.360Z,994.35
2023-03-27T03:01:50.585Z,994.37
2023-03-27T03:02:50.616Z,994.41
2023-03-27T03:03:50.582Z,994.43
2023-03-27T03:04:50.514Z,994.48
2023-03-27T03:05:50.534Z,994.50
2023-03-27T03:06:50.525Z,994.47
2023-03-27T03:07:50.545Z,994.48
2023-03-27T03:08:50.525Z,994.50
2023-03-27T03:09:50.518Z,994.51
2023-03-27T03:10:50.526Z,994.53
2023-03-27T03:11:50.485Z,994.60
2023-03-27T03:12:50.520Z,994.55
2023-03-27T03:13:50.493Z,994.63
2023-03-27T03:14:50.477Z,994.64
2023-03-27T03:15:50.696Z,994.66
2023-03-27T03:16:50.497Z,994.73
2023-03-27T03:17:50.479Z,994.74
2023-03-27T03:18:51.433Z,994.73
2023-03-27T03:19:50.447Z,994.79
2023-03-27T03:20:50.453Z,994.82
2023-03-27T03:21:50.478Z,994.79
2023-03-27T03:22:50.467Z,994.84
2023-03-27T03:23:58.196Z,994.80
2023-03-27T03:24:51.433Z,994.87
2023-03-27T03:25:50.409Z,994.95
2023-03-27T03:26:50.440Z,994.90
2023-03-27T03:27:50.405Z,994.92
2023-03-27T03:29:00.111Z,994.99
2023-03-27T03:29:51.377Z,994.97
2023-03-27T03:30:50.551Z,994.99
2023-03-27T03:31:50.377Z,995.05
2023-03-27T03:32:50.459Z,995.06
2023-03-27T03:33:50.343Z,995.04
2023-03-27T03:34:50.338Z,995.13
2023-03-27T03:35:51.433Z,995.16
2023-03-27T03:36:50.430Z,995.11
2023-03-27T03:37:51.064Z,995.13
2023-03-27T03:38:51.373Z,995.09
2023-03-27T03:39:50.320Z,995.17
2023-03-27T03:41:11.439Z,995.16
2023-03-27T03:41:50.338Z,995.24
2023-03-27T03:42:50.390Z,995.27
2023-03-27T03:43:50.345Z,995.26
2023-03-27T03:44:50.305Z,995.30
2023-03-27T03:45:50.327Z,995.33
2023-03-27T03:46:50.346Z,995.40
2023-03-27T03:47:50.401Z,995.42
2023-03-27T03:48:50.324Z,995.42
2023-03-27T03:49:50.353Z,995.46
2023-03-27T03:50:50.287Z,995.45
2023-03-27T03:52:04.375Z,995.41
2023-03-27T03:52:51.261Z,995.46
2023-03-27T03:53:50.277Z,995.49
2023-03-27T03:54:50.273Z,995.52
2023-03-27T03:55:50.251Z,995.55
2023-03-27T03:56:50.400Z,995.58
2023-03-27T03:57:50.333Z,995.61
2023-03-27T03:58:50.200Z,995.64
2023-03-27T03:59:50.237Z,995.60
2023-03-27T04:00:51.202Z,995.67
2023-03-27T04:01:50.260Z,995.70
2023-03-27T04:02:50.299Z,995.78
2023-03-27T04:03:50.303Z,995.76
2023-03-27T04:04:50.190Z,995.79
2023-03-27T04:05:50.170Z,995.72
2023-03-27T04:06:50.169Z,995.82
2023-03-27T04:07:50.155Z,995.80
2023-03-27T04:08:50.170Z,995.84
2023-03-27T04:09:50.175Z,995.85
2023-03-27T04:10:50.158Z,995.84
2023-03-27T04:11:50.111Z,995.90
2023-03-27T04:12:50.190Z,995.94
2023-03-27T04:13:50.401Z,995.97
2023-03-27T04:14:50.307Z,995.95
2023-03-27T04:15:50.328Z,995.99
2023-03-27T04:16:50.471Z,995.97
2023-03-27T04:17:50.423Z,995.99
2023-03-27T04:18:50.521Z,996.00
2023-03-27T04:19:50.331Z,996.01
2023-03-27T04:20:51.033Z,996.06
2023-03-27T04:21:50.147Z,996.03
2023-03-27T04:22:51.347Z,996.04
2023-03-27T04:23:50.171Z,996.09
2023-03-27T04:24:50.203Z,996.01
2023-03-27T04:25:50.213Z,996.05
2023-03-27T04:26:50.286Z,996.06
2023-03-27T04:27:50.169Z,996.05
2023-03-27T04:28:50.169Z,996.10
2023-03-27T04:29:50.146Z,996.16
2023-03-27T04:30:51.324Z,996.10
2023-03-27T04:31:50.510Z,996.12
2023-03-27T04:32:50.167Z,996.13
2023-03-27T04:33:50.556Z,996.14
2023-03-27T04:34:50.269Z,996.12
2023-03-27T04:36:06.581Z,996.13
2023-03-27T04:36:51.617Z,996.14
2023-03-27T04:37:50.091Z,996.16
2023-03-27T04:38:50.205Z,996.16
2023-03-27T04:39:51.055Z,996.14
2023-03-27T04:40:50.197Z,996.14
2023-03-27T04:41:50.077Z,996.22
2023-03-27T04:42:50.097Z,996.14
2023-03-27T04:43:50.219Z,996.20
2023-03-27T04:44:50.007Z,996.23
2023-03-27T04:45:49.938Z,996.25
2023-03-27T04:46:49.934Z,996.24
2023-03-27T04:47:50.003Z,996.25
2023-03-27T04:48:49.895Z,996.26
2023-03-27T04:49:49.906Z,996.26
2023-03-27T04:50:49.908Z,996.28
2023-03-27T04:51:49.946Z,996.32
2023-03-27T04:52:50.718Z,996.32
2023-03-27T04:53:50.929Z,996.35
2023-03-27T04:54:49.960Z,996.39
2023-03-27T04:55:49.843Z,996.39
2023-03-27T04:56:49.889Z,996.45
2023-03-27T04:57:49.838Z,996.41
2023-03-27T04:58:49.900Z,996.52
2023-03-27T04:59:50.870Z,996.53
2023-03-27T05:00:49.938Z,996.53
2023-03-27T05:01:50.033Z,996.56
2023-03-27T05:02:50.410Z,996.58
2023-03-27T05:03:49.831Z,996.59
2023-03-27T05:04:49.899Z,996.62
2023-03-27T05:05:49.818Z,996.64
2023-03-27T05:06:49.793Z,996.67
2023-03-27T05:07:49.796Z,996.71
2023-03-27T05:08:50.805Z,996.75
2023-03-27T05:09:49.844Z,996.73
2023-03-27T05:10:49.813Z,996.74
2023-03-27T05:11:49.837Z,996.71
2023-03-27T05:12:49.773Z,996.79
2023-03-27T05:13:49.754Z,996.77
2023-03-27T05:14:49.761Z,996.83
2023-03-27T05:15:49.764Z,996.85
2023-03-27T05:16:49.778Z,996.86
2023-03-27T05:17:49.764Z,996.86
2023-03-27T05:18:49.779Z,996.93
2023-03-27T05:19:49.711Z,996.97
2023-03-27T05:20:49.724Z,996.96
2023-03-27T05:21:49.692Z,997.04
2023-03-27T05:22:49.737Z,996.97
2023-03-27T05:23:49.669Z,996.96
2023-03-27T05:24:49.679Z,996.98
2023-03-27T05:26:00.182Z,996.98
2023-03-27T05:26:50.680Z,996.98
2023-03-27T05:27:49.680Z,997.08
2023-03-27T05:28:49.669Z,997.05
2023-03-27T05:29:49.646Z,997.07
2023-03-27T05:30:49.674Z,997.10
2023-03-27T05:31:49.634Z,997.14
2023-03-27T05:32:49.724Z,997.19
2023-03-27T05:33:49.649Z,997.19
2023-03-27T05:34:49.638Z,997.17
2023-03-27T05:35:49.635Z,997.20
2023-03-27T05:36:49.619Z,997.21
2023-03-27T05:37:49.649Z,997.18
2023-03-27T05:38:49.645Z,997.26
2023-03-27T05:39:49.588Z,997.27
2023-03-27T05:40:49.586Z,997.24
2023-03-27T05:41:49.599Z,997.28
2023-03-27T05:42:49.650Z,997.27
2023-03-27T05:43:51.132Z,997.26
2023-03-27T05:44:50.576Z,997.35
2023-03-27T05:45:49.657Z,997.37
2023-03-27T05:46:49.587Z,997.38
2023-03-27T05:47:49.634Z,997.38
2023-03-27T05:48:49.553Z,997.43
2023-03-27T05:49:49.516Z,997.49
2023-03-27T05:50:49.535Z,997.44
2023-03-27T05:51:49.560Z,997.47
2023-03-27T05:52:49.548Z,997.49
2023-03-27T05:53:49.548Z,997.49
2023-03-27T05:54:49.488Z,997.51
2023-03-27T05:55:49.518Z,997.51
2023-03-27T05:56:50.508Z,997.54
2023-03-27T05:57:49.496Z,997.55
2023-03-27T05:58:49.480Z,997.53
2023-03-27T05:59:49.517Z,997.59
2023-03-27T06:00:49.474Z,997.60
2023-03-27T06:01:49.451Z,997.61
2023-03-27T06:02:49.580Z,997.67
2023-03-27T06:03:49.557Z,997.63
2023-03-27T06:04:49.437Z,997.60
2023-03-27T06:05:49.432Z,997.67
2023-03-27T06:06:49.430Z,997.69
2023-03-27T06:07:49.431Z,997.70
2023-03-27T06:08:49.419Z,997.70
2023-03-27T06:09:49.420Z,997.70
2023-03-27T06:10:49.461Z,997.77
2023-03-27T06:11:49.434Z,997.71
2023-03-27T06:12:49.396Z,997.74
2023-03-27T06:13:49.436Z,997.81
2023-03-27T06:14:49.355Z,997.81
2023-03-27T06:15:49.405Z,997.86
2023-03-27T06:16:49.392Z,997.88
2023-03-27T06:17:49.427Z,997.87
2023-03-27T06:18:49.375Z,997.99
2023-03-27T06:19:49.318Z,997.90
2023-03-27T06:20:49.372Z,997.97
2023-03-27T06:21:49.330Z,997.97
2023-03-27T06:22:49.348Z,997.95
2023-03-27T06:23:49.353Z,997.96
2023-03-27T06:24:49.402Z,997.98
2023-03-27T06:25:49.349Z,998.03
2023-03-27T06:26:49.317Z,997.96
2023-03-27T06:27:49.298Z,998.01
2023-03-27T06:28:49.338Z,998.06
2023-03-27T06:29:49.293Z,998.06
2023-03-27T06:30:49.288Z,998.01
2023-03-27T06:31:49.285Z,998.01
2023-03-27T06:32:49.308Z,998.04
2023-03-27T06:33:49.282Z,998.07
2023-03-27T06:34:49.300Z,998.07
2023-03-27T06:35:53.151Z,998.16
2023-03-27T06:36:49.220Z,998.09
2023-03-27T06:37:50.836Z,998.16
2023-03-27T06:38:50.231Z,998.14
2023-03-27T06:39:49.237Z,998.17
2023-03-27T06:40:49.244Z,998.20
2023-03-27T06:41:49.297Z,998.21
2023-03-27T06:42:49.232Z,998.21
2023-03-27T06:43:49.229Z,998.30
2023-03-27T06:44:49.884Z,998.22
2023-03-27T06:45:49.224Z,998.31
2023-03-27T06:46:49.266Z,998.21
2023-03-27T06:47:54.383Z,998.28
2023-03-27T06:48:51.273Z,998.29
2023-03-27T06:49:49.237Z,998.32
2023-03-27T06:50:49.175Z,998.38
2023-03-27T06:51:49.150Z,998.31
2023-03-27T06:52:49.146Z,998.35
2023-03-27T06:53:49.131Z,998.35
2023-03-27T06:54:49.127Z,998.31
2023-03-27T06:55:49.113Z,998.26
2023-03-27T06:56:49.142Z,998.33
2023-03-27T06:57:49.140Z,998.35
2023-03-27T06:58:49.097Z,998.42
2023-03-27T06:59:49.073Z,998.38
2023-03-27T07:00:49.386Z,998.36
2023-03-27T07:01:49.181Z,998.40
2023-03-27T07:02:49.274Z,998.40
2023-03-27T07:03:49.077Z,998.41
2023-03-27T07:05:01.644Z,998.42
2023-03-27T07:05:51.949Z,998.49
2023-03-27T07:06:49.150Z,998.44
2023-03-27T07:07:50.079Z,998.36
2023-03-27T07:08:49.886Z,998.42
2023-03-27T07:09:49.078Z,998.41
2023-03-27T07:10:59.954Z,998.51
2023-03-27T07:11:51.045Z,998.50
2023-03-27T07:12:49.108Z,998.51
2023-03-27T07:13:49.372Z,998.58
2023-03-27T07:14:50.184Z,998.55
2023-03-27T07:15:49.068Z,998.56
2023-03-27T07:16:49.244Z,998.58
2023-03-27T07:17:49.524Z,998.56
2023-03-27T07:18:49.150Z,998.54
2023-03-27T07:19:49.001Z,998.55
2023-03-27T07:20:49.025Z,998.64
2023-03-27T07:21:48.939Z,998.64
2023-03-27T07:22:48.996Z,998.61
2023-03-27T07:23:49.189Z,998.66
2023-03-27T07:24:49.229Z,998.64
2023-03-27T07:25:49.203Z,998.66
2023-03-27T07:26:48.962Z,998.71
2023-03-27T07:27:48.986Z,998.68
2023-03-27T07:28:48.985Z,998.79
2023-03-27T07:29:49.081Z,998.75
2023-03-27T07:30:49.931Z,998.78
2023-03-27T07:31:56.232Z,998.82
2023-03-27T07:32:51.021Z,998.85
2023-03-27T07:33:49.973Z,998.89
2023-03-27T07:34:48.886Z,998.83
2023-03-27T07:35:48.953Z,998.85
2023-03-27T07:36:48.853Z,998.89
2023-03-27T07:37:48.872Z,998.91
2023-03-27T07:38:48.835Z,998.95
2023-03-27T07:39:48.834Z,999.04
2023-03-27T07:40:48.863Z,998.98
2023-03-27T07:41:48.853Z,999.04
2023-03-27T07:42:48.825Z,999.10
2023-03-27T07:43:48.857Z,999.11
2023-03-27T07:44:48.863Z,999.13
2023-03-27T07:45:48.864Z,999.13
2023-03-27T07:46:48.978Z,999.23
2023-03-27T07:47:48.901Z,999.12
2023-03-27T07:48:48.779Z,999.23
2023-03-27T07:49:49.442Z,999.10
2023-03-27T07:50:48.772Z,999.15
2023-03-27T07:51:48.818Z,999.25
2023-03-27T07:52:48.764Z,999.15
2023-03-27T07:53:48.770Z,999.20
2023-03-27T07:54:48.739Z,999.23
2023-03-27T07:55:48.797Z,999.30
2023-03-27T07:56:48.945Z,999.36
2023-03-27T07:58:00.825Z,999.34
2023-03-27T07:58:50.743Z,999.30
2023-03-27T07:59:48.780Z,999.33
2023-03-27T08:00:48.784Z,999.28
2023-03-27T08:01:48.724Z,999.30
2023-03-27T08:02:48.921Z,999.37
2023-03-27T08:03:48.947Z,999.35
2023-03-27T08:04:48.846Z,999.43
2023-03-27T08:05:48.671Z,999.44
2023-03-27T08:06:48.710Z,999.46
2023-03-27T08:07:48.685Z,999.45
2023-03-27T08:08:48.719Z,999.48
2023-03-27T08:09:48.680Z,999.46
2023-03-27T08:10:48.643Z,999.33
2023-03-27T08:11:48.640Z,999.29
2023-03-27T08:12:48.646Z,999.37
2023-03-27T08:13:48.669Z,999.30
2023-03-27T08:14:48.594Z,999.19
2023-03-27T08:15:48.673Z,999.32
2023-03-27T08:16:48.651Z,999.47
2023-03-27T08:17:48.611Z,999.44
2023-03-27T08:18:48.632Z,999.44
2023-03-27T08:19:48.594Z,999.37
2023-03-27T08:20:48.626Z,999.34
2023-03-27T08:21:48.590Z,999.36
2023-03-27T08:22:48.594Z,999.36
2023-03-27T08:23:48.571Z,999.44
2023-03-27T08:24:48.562Z,999.49
2023-03-27T08:25:48.655Z,999.34
2023-03-27T08:26:48.554Z,999.39
2023-03-27T08:27:48.534Z,999.40
2023-03-27T08:28:48.578Z,999.46
2023-03-27T08:29:48.749Z,999.46
2023-03-27T08:30:48.701Z,999.20
2023-03-27T08:31:49.392Z,999.34
2023-03-27T08:32:48.642Z,999.44
2023-03-27T08:33:48.896Z,999.46
2023-03-27T08:34:48.526Z,999.42
2023-03-27T08:35:48.491Z,999.42
2023-03-27T08:36:48.453Z,999.40
2023-03-27T08:37:48.462Z,999.55
2023-03-27T08:38:48.461Z,999.46
2023-03-27T08:39:48.537Z,999.41
2023-03-27T08:40:48.427Z,999.48
2023-03-27T08:41:48.462Z,999.17
2023-03-27T08:42:48.449Z,999.55
2023-03-27T08:43:48.493Z,999.55
2023-03-27T08:44:48.406Z,999.26
2023-03-27T08:45:48.452Z,999.46
2023-03-27T08:46:48.471Z,999.48
2023-03-27T08:47:48.403Z,999.25
2023-03-27T08:48:48.400Z,999.27
2023-03-27T08:49:48.422Z,999.51
2023-03-27T08:50:48.360Z,999.50
2023-03-27T08:51:48.366Z,999.61
2023-03-27T08:52:48.359Z,999.60
2023-03-27T08:53:48.358Z,999.33
2023-03-27T08:54:48.318Z,999.29
2023-03-27T08:55:48.392Z,999.56
2023-03-27T08:56:48.378Z,999.61
2023-03-27T08:57:48.361Z,999.34
2023-03-27T08:58:48.351Z,999.65
2023-03-27T08:59:48.359Z,999.31
2023-03-27T09:00:48.284Z,999.42
2023-03-27T09:01:48.314Z,999.52
2023-03-27T09:02:48.471Z,999.70
2023-03-27T09:03:48.354Z,999.71
2023-03-27T09:04:48.282Z,999.69
2023-03-27T09:05:48.285Z,999.40
2023-03-27T09:06:48.281Z,999.47
2023-03-27T09:07:48.271Z,999.42
2023-03-27T09:08:48.258Z,999.70
2023-03-27T09:09:48.265Z,999.72
2023-03-27T09:10:48.230Z,999.55
2023-03-27T09:11:48.233Z,999.41
2023-03-27T09:12:48.210Z,999.39
2023-03-27T09:13:48.286Z,999.49
2023-03-27T09:14:48.199Z,999.65
2023-03-27T09:15:48.311Z,999.49
2023-03-27T09:16:48.205Z,999.47
2023-03-27T09:17:48.208Z,999.53
2023-03-27T09:18:48.209Z,999.44
2023-03-27T09:19:48.208Z,999.56
2023-03-27T09:20:48.192Z,999.75
2023-03-27T09:21:48.294Z,999.60
2023-03-27T09:22:48.629Z,999.82
2023-03-27T09:23:48.144Z,999.84
2023-03-27T09:24:48.133Z,999.67
2023-03-27T09:25:48.145Z,999.79
2023-03-27T09:26:55.240Z,999.84
2023-03-27T09:27:50.101Z,999.81
2023-03-27T09:28:49.042Z,999.81
2023-03-27T09:29:48.096Z,999.83
2023-03-27T09:30:48.107Z,999.55
2023-03-27T09:31:48.123Z,999.72
2023-03-27T09:32:48.105Z,999.80
2023-03-27T09:33:48.062Z,999.86
2023-03-27T09:34:48.164Z,999.78
2023-03-27T09:35:48.080Z,999.59
2023-03-27T09:36:48.076Z,999.56
2023-03-27T09:37:48.060Z,999.47
2023-03-27T09:38:48.048Z,999.54
2023-03-27T09:39:48.065Z,999.47
2023-03-27T09:40:48.024Z,999.56
2023-03-27T09:43:58.573Z,999.72
2023-03-27T09:44:59.696Z,999.70
2023-03-27T09:45:59.725Z,999.51
2023-03-27T09:46:59.703Z,999.68
2023-03-27T09:47:59.778Z,999.58
2023-03-27T09:48:59.710Z,999.65
2023-03-27T09:49:59.628Z,999.67
2023-03-27T09:50:59.642Z,999.78
2023-03-27T09:51:59.657Z,999.76
2023-03-27T09:52:59.595Z,1000.00
2023-03-27T09:53:59.651Z,999.91
2023-03-27T09:54:59.588Z,1000.03
2023-03-27T09:56:01.065Z,1000.01
2023-03-27T09:56:59.681Z,999.87
2023-03-27T09:58:00.550Z,1000.02
2023-03-27T09:58:59.587Z,999.74
2023-03-27T09:59:59.635Z,999.74
2023-03-27T10:00:59.708Z,999.67
2023-03-27T10:01:59.534Z,999.63
2023-03-27T10:02:59.560Z,999.60
2023-03-27T10:03:59.681Z,999.71
2023-03-27T10:04:59.717Z,999.63
2023-03-27T10:05:59.504Z,999.72
2023-03-27T10:06:59.511Z,999.79
2023-03-27T10:07:59.487Z,999.84
2023-03-27T10:08:59.818Z,999.85
2023-03-27T10:09:59.622Z,999.86
2023-03-27T10:10:59.620Z,1000.08
2023-03-27T10:11:59.485Z,999.85
2023-03-27T10:12:59.539Z,999.76
2023-03-27T10:13:59.447Z,999.77
2023-03-27T10:15:01.682Z,999.71
2023-03-27T10:15:59.455Z,999.78
2023-03-27T10:16:59.460Z,999.69
2023-03-27T10:17:59.593Z,999.59
2023-03-27T10:18:59.441Z,999.90
2023-03-27T10:19:59.444Z,999.95
2023-03-27T10:20:59.599Z,1000.03
2023-03-27T10:21:59.551Z,999.99
2023-03-27T10:22:59.426Z,1000.06
2023-03-27T10:23:59.422Z,1000.00
2023-03-27T10:24:59.396Z,1000.07
2023-03-27T10:25:59.401Z,1000.08
2023-03-27T10:26:59.404Z,1000.02
2023-03-27T10:27:59.406Z,1000.06
2023-03-27T10:28:59.406Z,999.95
2023-03-27T10:29:59.370Z,999.99
2023-03-27T10:30:59.481Z,999.98
2023-03-27T10:31:59.426Z,1000.00
2023-03-27T10:32:59.378Z,1000.01
2023-03-27T10:33:59.352Z,1000.00
2023-03-27T10:34:59.338Z,999.69
2023-03-27T10:35:59.393Z,999.70
2023-03-27T10:36:59.323Z,999.62
2023-03-27T10:37:59.300Z,999.66
2023-03-27T10:38:59.352Z,999.56
2023-03-27T10:39:59.306Z,999.59
2023-03-27T10:41:00.324Z,999.56
2023-03-27T10:41:59.344Z,999.66
2023-03-27T10:42:59.287Z,999.89
2023-03-27T10:43:59.320Z,1000.02
2023-03-27T10:44:59.276Z,999.99
2023-03-27T10:45:59.319Z,999.98
2023-03-27T10:46:59.393Z,1000.00
2023-03-27T10:47:59.297Z,1000.02
2023-03-27T10:48:59.218Z,1000.04
2023-03-27T10:49:59.233Z,1000.10
2023-03-27T10:50:59.332Z,1000.08
2023-03-27T10:51:59.251Z,999.93
2023-03-27T10:52:59.272Z,999.95
2023-03-27T10:53:59.326Z,999.97
2023-03-27T10:54:59.221Z,999.87
2023-03-27T10:55:59.226Z,999.77
2023-03-27T10:56:59.295Z,999.70
2023-03-27T10:57:59.920Z,999.70
2023-03-27T10:58:59.196Z,999.73
2023-03-27T10:59:59.165Z,999.77
2023-03-27T11:00:59.406Z,999.66
2023-03-27T11:01:59.250Z,999.81
2023-03-27T11:02:59.240Z,999.78
2023-03-27T11:03:59.191Z,999.93
2023-03-27T11:04:59.143Z,1000.11
2023-03-27T11:05:59.177Z,1000.12
2023-03-27T11:06:59.189Z,1000.16
2023-03-27T11:07:59.119Z,1000.16
2023-03-27T11:08:59.121Z,1000.11
2023-03-27T11:09:59.115Z,1000.11
2023-03-27T11:10:59.302Z,1000.13
2023-03-27T11:11:59.117Z,1000.08
2023-03-27T11:12:59.236Z,1000.12
2023-03-27T11:13:59.163Z,1000.15
2023-03-27T11:14:59.109Z,1000.14
2023-03-27T11:15:59.120Z,999.80
2023-03-27T11:16:59.153Z,1000.16
2023-03-27T11:17:59.155Z,999.81
2023-03-27T11:18:59.075Z,1000.14
2023-03-27T11:19:59.062Z,1000.19
2023-03-27T11:20:59.156Z,1000.08
2023-03-27T11:21:59.105Z,1000.10
2023-03-27T11:22:59.073Z,1000.23
2023-03-27T11:23:59.025Z,1000.23
2023-03-27T11:24:59.001Z,999.91
2023-03-27T11:25:59.042Z,1000.00
2023-03-27T11:26:59.049Z,1000.06
2023-03-27T11:27:59.085Z,1000.18
2023-03-27T11:28:58.991Z,1000.09
2023-03-27T11:29:59.014Z,1000.17
2023-03-27T11:30:59.247Z,1000.16
2023-03-27T11:32:00.059Z,1000.25
2023-03-27T11:32:59.037Z,1000.18
2023-03-27T11:33:58.965Z,1000.18
2023-03-27T11:34:58.969Z,1000.28
2023-03-27T11:35:59.017Z,1000.17
2023-03-27T11:36:58.945Z,1000.20
2023-03-27T11:37:59.031Z,1000.20
2023-03-27T11:38:58.921Z,999.86
2023-03-27T11:39:58.905Z,999.78
2023-03-27T11:40:59.128Z,999.85
2023-03-27T11:41:58.949Z,1000.16
2023-03-27T11:42:58.912Z,999.99
2023-03-27T11:43:58.909Z,999.78
2023-03-27T11:44:58.931Z,999.72
2023-03-27T11:45:58.885Z,1000.11
2023-03-27T11:46:58.978Z,999.89
2023-03-27T11:47:58.953Z,999.76
2023-03-27T11:48:58.863Z,999.71
2023-03-27T11:49:58.884Z,999.85
2023-03-27T11:50:59.240Z,1000.01
2023-03-27T11:51:58.831Z,999.70
2023-03-27T11:52:58.844Z,999.70
2023-03-27T11:53:58.839Z,1000.18
2023-03-27T11:54:58.820Z,999.83
2023-03-27T11:55:58.842Z,999.72
2023-03-27T11:56:58.824Z,1000.13
2023-03-27T11:57:58.867Z,1000.09
2023-03-27T11:58:58.815Z,1000.05
2023-03-27T11:59:58.874Z,1000.08
2023-03-27T12:00:58.946Z,1000.16
2023-03-27T12:01:59.519Z,1000.09
2023-03-27T12:02:58.952Z,1000.10
2023-03-27T12:03:58.813Z,1000.04
2023-03-27T12:04:58.772Z,999.75
2023-03-27T12:05:58.839Z,999.72
2023-03-27T12:07:04.330Z,999.70
2023-03-27T12:08:00.776Z,999.69
2023-03-27T12:08:58.766Z,999.71
2023-03-27T12:09:58.711Z,999.79
2023-03-27T12:10:58.944Z,999.74
2023-03-27T12:11:58.725Z,999.80
2023-03-27T12:12:58.715Z,999.88
2023-03-27T12:14:02.035Z,999.88
2023-03-27T12:14:59.696Z,1000.01
2023-03-27T12:15:58.710Z,1000.15
2023-03-27T12:16:58.648Z,999.97
2023-03-27T12:17:58.733Z,1000.03
2023-03-27T12:19:05.827Z,1000.12
2023-03-27T12:20:00.654Z,1000.08
2023-03-27T12:20:58.674Z,1000.11
2023-03-27T12:21:58.671Z,1000.12
2023-03-27T12:22:58.696Z,1000.13
2023-03-27T12:23:58.771Z,999.81
2023-03-27T12:24:59.922Z,1000.05
2023-03-27T12:25:59.716Z,1000.06
2023-03-27T12:26:58.708Z,999.94
2023-03-27T12:27:58.607Z,1000.06
2023-03-27T12:28:58.652Z,1000.13